Enter the Airport ICAO Code

Search by Airport or City

Current Weather

SUMU | Carrasco Gral. Cesáreo L. Berisso International Airport

Montevideo, Uruguay

Last Update 14 Minutes Ago

Clear Sky

Temperature of 24 ºC

Moderate to Strong Winds from NorthWest with Gusts

Temperature

24 ºC

Dew Point Temperature

09 ºC

Relative Humidity

38.68 %

Wind Direction

NorthWest (300º, Without Significant Variations)

Wind Velocity

37 km/h (20 kt)

Gusts

56 km/h (30 kt)

Visibility

No Significant Reductions

Sea Level Pressure

1009 hPa (Hectopascals)

Layers of Clouds

None

METAR SUMU 090213Z 30020G30KT CAVOK 24/09 Q1009 NOSIG

Weather Forecast

SUMU | Carrasco Gral. Cesáreo L. Berisso International Airport

Montevideo, Uruguay

Forecast valid for the next 22 Hours

From now on it is expected:

Clear Sky

Moderate Winds from North

From now on it is expected 2 hours with intermittent periods of:

Rain

Maximum Temperature

31 ºC in 16 Hours

Minimum Temperature

18 ºC in 7 Hours

TAF SUMU 082330Z 0900/0924 34012KT CAVOK TX31/0918Z TN18/0909Z PROB30 TEMPO 0900/0904 8000 TSSHRA SCT020 FEW040CB BKN070